createdAt,value
2022-12-24T00:00:35.397Z,51.60
2022-12-24T00:03:02.098Z,56.10
2022-12-24T00:05:28.709Z,53.80
2022-12-24T00:07:55.130Z,42.50
2022-12-24T00:10:21.757Z,41.80
2022-12-24T00:12:48.217Z,45.20
2022-12-24T00:15:14.679Z,67.60
2022-12-24T00:17:41.090Z,75.80
2022-12-24T00:20:08.685Z,134.10
2022-12-24T00:22:35.123Z,96.90
2022-12-24T00:25:01.561Z,59.80
2022-12-24T00:27:28.108Z,76.40
2022-12-24T00:29:54.663Z,94.30
2022-12-24T00:32:21.181Z,58.90
2022-12-24T00:34:47.658Z,60.90
2022-12-24T00:37:16.152Z,59.60
2022-12-24T00:39:42.534Z,59.50
2022-12-24T00:42:09.021Z,50.00
2022-12-24T00:44:35.616Z,51.10
2022-12-24T00:47:05.509Z,51.40
2022-12-24T00:49:36.543Z,46.00
2022-12-24T00:52:03.201Z,48.50
2022-12-24T00:54:29.876Z,47.00
2022-12-24T00:56:56.405Z,39.50
2022-12-24T00:59:22.943Z,32.40
2022-12-24T01:01:49.579Z,33.80
2022-12-24T01:04:16.512Z,32.10
2022-12-24T01:06:43.382Z,31.90
2022-12-24T01:09:10.168Z,30.40
2022-12-24T01:11:37.180Z,33.30
2022-12-24T01:14:03.598Z,29.70
2022-12-24T01:16:30.256Z,29.00
2022-12-24T01:18:57.073Z,29.00
2022-12-24T01:21:23.645Z,26.90
2022-12-24T01:23:50.075Z,27.80
2022-12-24T01:26:16.625Z,28.80
2022-12-24T01:28:43.166Z,30.10
2022-12-24T01:31:15.914Z,30.10
2022-12-24T01:33:43.348Z,31.60
2022-12-24T01:36:10.839Z,34.20
2022-12-24T01:38:37.719Z,36.80
2022-12-24T01:41:04.648Z,39.20
2022-12-24T01:43:32.580Z,43.70
2022-12-24T01:46:03.466Z,41.60
2022-12-24T01:48:44.569Z,48.50
2022-12-24T01:51:11.004Z,43.80
2022-12-24T01:53:38.608Z,48.00
2022-12-24T01:56:06.555Z,45.10
2022-12-24T01:58:35.175Z,44.60
2022-12-24T02:01:02.059Z,43.40
2022-12-24T02:03:28.978Z,45.20
2022-12-24T02:05:58.237Z,43.30
2022-12-24T02:08:24.772Z,43.30
2022-12-24T02:10:51.283Z,41.30
2022-12-24T02:13:20.929Z,41.60
2022-12-24T02:16:08.669Z,50.00
2022-12-24T02:18:41.179Z,52.20
2022-12-24T02:21:46.317Z,47.10
2022-12-24T02:24:52.339Z,43.30
2022-12-24T02:27:29.709Z,35.10
2022-12-24T02:30:16.528Z,38.10
2022-12-24T02:33:16.983Z,35.60
2022-12-24T02:36:11.604Z,36.50
2022-12-24T02:38:54.757Z,39.20
2022-12-24T02:41:28.225Z,37.20
2022-12-24T02:43:57.361Z,42.00
2022-12-24T02:46:30.377Z,39.70
2022-12-24T02:49:00.653Z,38.50
2022-12-24T02:51:27.175Z,38.60
2022-12-24T02:53:53.812Z,38.40
2022-12-24T02:56:50.259Z,33.80
2022-12-24T02:59:42.815Z,32.30
2022-12-24T03:02:24.366Z,29.40
2022-12-24T03:04:59.842Z,27.70
2022-12-24T03:07:35.423Z,26.80
2022-12-24T03:10:10.860Z,28.70
2022-12-24T03:12:54.284Z,26.00
2022-12-24T03:15:24.420Z,23.30
2022-12-24T03:17:55.585Z,30.90
2022-12-24T03:20:36.651Z,29.50
2022-12-24T03:23:04.265Z,31.40
2022-12-24T03:25:33.697Z,29.20
2022-12-24T03:28:03.929Z,29.20
2022-12-24T03:30:30.806Z,28.90
2022-12-24T03:32:58.463Z,30.40
2022-12-24T03:35:25.196Z,30.60
2022-12-24T03:37:52.259Z,34.30
2022-12-24T03:40:18.920Z,34.60
2022-12-24T03:42:45.437Z,33.10
2022-12-24T03:45:11.981Z,31.90
2022-12-24T03:47:38.461Z,26.20
2022-12-24T03:50:06.206Z,29.50
2022-12-24T03:52:34.243Z,32.60
2022-12-24T03:55:00.708Z,33.70
2022-12-24T03:57:27.244Z,33.70
2022-12-24T03:59:53.734Z,32.80
2022-12-24T04:02:20.389Z,35.60
2022-12-24T04:04:47.009Z,33.90
2022-12-24T04:07:13.618Z,35.50
2022-12-24T04:09:40.359Z,31.10
2022-12-24T04:12:07.518Z,33.60
2022-12-24T04:14:34.194Z,33.80
2022-12-24T04:17:01.050Z,53.40
2022-12-24T04:19:27.650Z,35.90
2022-12-24T04:21:54.187Z,31.00
2022-12-24T04:24:20.606Z,27.30
2022-12-24T04:26:47.051Z,26.00
2022-12-24T04:29:13.704Z,25.80
2022-12-24T04:31:40.186Z,24.40
2022-12-24T04:34:06.904Z,25.10
2022-12-24T04:36:33.433Z,25.20
2022-12-24T04:38:59.833Z,26.00
2022-12-24T04:41:26.416Z,24.20
2022-12-24T04:43:54.406Z,25.60
2022-12-24T04:46:27.194Z,24.00
2022-12-24T04:48:54.606Z,24.20
2022-12-24T04:51:21.158Z,27.30
2022-12-24T04:53:47.920Z,30.60
2022-12-24T04:56:20.825Z,26.40
2022-12-24T04:58:48.364Z,31.40
2022-12-24T05:01:18.577Z,31.30
2022-12-24T05:03:46.024Z,41.60
2022-12-24T05:06:15.769Z,35.70
2022-12-24T05:08:42.735Z,36.30
2022-12-24T05:11:09.982Z,34.90
2022-12-24T05:13:42.496Z,41.40
2022-12-24T05:16:12.493Z,43.80
2022-12-24T05:18:39.625Z,43.40
2022-12-24T05:21:19.631Z,45.40
2022-12-24T05:23:46.331Z,44.00
2022-12-24T05:26:19.226Z,41.90
2022-12-24T05:28:45.940Z,41.20
2022-12-24T05:31:12.381Z,39.70
2022-12-24T05:33:38.941Z,42.20
2022-12-24T05:36:06.041Z,39.70
2022-12-24T05:38:32.536Z,41.30
2022-12-24T05:40:59.175Z,39.70
2022-12-24T05:43:26.078Z,38.50
2022-12-24T05:45:57.435Z,38.90
2022-12-24T05:50:50.453Z,41.90
2022-12-24T05:53:16.881Z,47.30
2022-12-24T05:55:43.283Z,58.20
2022-12-24T05:58:09.720Z,58.90
2022-12-24T06:00:36.295Z,51.10
2022-12-24T06:03:02.993Z,50.60
2022-12-24T06:05:29.840Z,44.60
2022-12-24T06:07:56.337Z,47.90
2022-12-24T06:10:22.985Z,48.30
2022-12-24T06:12:49.530Z,47.80
2022-12-24T06:15:21.888Z,50.50
2022-12-24T06:17:50.395Z,48.20
2022-12-24T06:20:17.038Z,105.90
2022-12-24T06:22:43.421Z,74.70
2022-12-24T06:25:10.023Z,71.30
2022-12-24T06:27:36.660Z,58.60
2022-12-24T06:30:03.513Z,54.60
2022-12-24T06:32:29.966Z,58.50
2022-12-24T06:34:56.386Z,69.90
2022-12-24T06:37:22.782Z,68.90
2022-12-24T06:39:49.367Z,55.30
2022-12-24T06:42:15.825Z,51.00
2022-12-24T06:44:42.354Z,44.30
2022-12-24T06:47:08.897Z,50.20
2022-12-24T06:49:35.323Z,48.00
2022-12-24T06:52:01.778Z,56.30
2022-12-24T06:54:28.238Z,50.90
2022-12-24T06:56:57.125Z,62.50
2022-12-24T06:59:24.383Z,61.10
2022-12-24T07:01:50.994Z,58.50
2022-12-24T07:04:20.474Z,49.80
2022-12-24T07:06:47.731Z,51.90
2022-12-24T07:09:14.220Z,51.50
2022-12-24T07:11:40.844Z,54.90
2022-12-24T07:14:07.385Z,42.30
2022-12-24T07:16:34.039Z,51.10
2022-12-24T07:19:00.711Z,73.50
2022-12-24T07:21:27.214Z,104.50
2022-12-24T07:23:53.752Z,116.80
2022-12-24T07:26:20.200Z,68.00
2022-12-24T07:28:47.617Z,68.00
2022-12-24T07:31:14.476Z,59.90
2022-12-24T07:33:41.351Z,57.00
2022-12-24T07:36:14.544Z,63.30
2022-12-24T07:38:41.087Z,53.70
2022-12-24T07:41:07.523Z,51.40
2022-12-24T07:43:34.063Z,44.70
2022-12-24T07:46:00.602Z,48.80
2022-12-24T07:48:29.521Z,44.60
2022-12-24T07:50:57.444Z,45.60
2022-12-24T07:53:25.845Z,57.30
2022-12-24T07:55:52.803Z,94.30
2022-12-24T07:58:19.813Z,70.90
2022-12-24T08:00:46.259Z,64.60
2022-12-24T08:03:20.925Z,63.00
2022-12-24T08:05:48.623Z,70.30
2022-12-24T08:08:15.631Z,83.60
2022-12-24T08:10:44.957Z,80.90
2022-12-24T08:13:11.560Z,77.90
2022-12-24T08:15:37.997Z,73.40
2022-12-24T08:18:04.665Z,67.30
2022-12-24T08:20:31.289Z,67.10
2022-12-24T08:22:57.747Z,69.90
2022-12-24T08:25:24.157Z,72.20
2022-12-24T08:27:50.554Z,135.10
2022-12-24T08:30:21.047Z,107.60
2022-12-24T08:32:48.425Z,93.00
2022-12-24T08:35:15.049Z,103.20
2022-12-24T08:37:41.693Z,104.20
2022-12-24T08:40:08.947Z,79.00
2022-12-24T08:42:35.387Z,59.60
2022-12-24T08:45:01.972Z,46.70
2022-12-24T08:47:28.464Z,59.50
2022-12-24T08:49:54.984Z,81.00
2022-12-24T08:52:21.384Z,73.70
2022-12-24T08:54:47.792Z,64.70
2022-12-24T08:57:14.181Z,63.00
2022-12-24T08:59:40.637Z,63.80
2022-12-24T09:02:08.862Z,75.20
2022-12-24T09:04:39.271Z,86.00
2022-12-24T09:07:07.224Z,84.80
2022-12-24T09:09:37.824Z,107.20
2022-12-24T09:12:06.659Z,110.80
2022-12-24T09:14:33.226Z,79.80
2022-12-24T09:17:00.101Z,75.90
2022-12-24T09:19:28.147Z,86.20
2022-12-24T09:21:54.594Z,69.50
2022-12-24T09:24:21.007Z,101.40
2022-12-24T09:26:50.061Z,97.70
2022-12-24T09:29:20.569Z,64.20
2022-12-24T09:31:47.049Z,70.50
2022-12-24T09:34:13.709Z,179.90
2022-12-24T09:36:40.250Z,115.80
2022-12-24T09:39:06.804Z,104.40
2022-12-24T09:41:36.097Z,105.20
2022-12-24T09:44:24.470Z,103.60
2022-12-24T09:46:53.650Z,93.70
2022-12-24T09:49:32.010Z,100.60
2022-12-24T09:52:06.921Z,86.60
2022-12-24T09:54:47.751Z,72.40
2022-12-24T09:57:35.911Z,78.10
2022-12-24T10:00:03.001Z,102.00
2022-12-24T10:02:29.552Z,128.40
2022-12-24T10:04:56.207Z,122.90
2022-12-24T10:07:54.983Z,112.70
2022-12-24T10:10:35.423Z,124.10
2022-12-24T10:13:20.354Z,111.00
2022-12-24T10:16:08.559Z,106.40
2022-12-24T10:19:05.571Z,101.30
2022-12-24T10:21:50.893Z,105.70
2022-12-24T10:24:39.818Z,99.10
2022-12-24T10:27:16.048Z,110.30
2022-12-24T10:29:48.027Z,110.60
2022-12-24T10:32:25.045Z,129.50
2022-12-24T10:35:00.513Z,147.70
2022-12-24T10:37:29.503Z,125.10
2022-12-24T10:39:58.316Z,124.20
2022-12-24T10:42:38.405Z,119.00
2022-12-24T10:45:08.071Z,116.70
2022-12-24T10:47:38.210Z,121.50
2022-12-24T10:50:14.075Z,118.60
2022-12-24T10:52:44.212Z,109.50
2022-12-24T10:55:28.891Z,116.80
2022-12-24T10:58:02.532Z,115.00
2022-12-24T11:00:35.491Z,141.80
2022-12-24T11:03:11.931Z,101.30
2022-12-24T11:05:39.634Z,99.40
2022-12-24T11:08:18.084Z,97.00
2022-12-24T11:10:56.587Z,80.10
2022-12-24T11:13:41.436Z,77.00
2022-12-24T11:16:21.145Z,69.20
2022-12-24T11:18:53.575Z,64.30
2022-12-24T11:21:26.487Z,64.20
2022-12-24T11:23:59.735Z,73.60
2022-12-24T11:26:29.853Z,71.70
2022-12-24T11:29:08.588Z,68.40
2022-12-24T11:31:35.649Z,96.40
2022-12-24T11:34:32.679Z,105.40
2022-12-24T11:37:18.500Z,99.00
2022-12-24T11:39:52.679Z,102.60
2022-12-24T11:42:31.847Z,108.80
2022-12-24T11:45:01.129Z,162.50
2022-12-24T11:47:36.503Z,149.90
2022-12-24T11:50:30.658Z,146.30
2022-12-24T11:52:57.067Z,148.70
2022-12-24T11:55:55.709Z,175.10
2022-12-24T11:58:47.565Z,232.70
2022-12-24T12:01:57.043Z,226.10
2022-12-24T12:04:36.616Z,191.70
2022-12-24T12:07:30.089Z,167.10
2022-12-24T12:10:06.589Z,186.80
2022-12-24T12:12:39.742Z,181.00
2022-12-24T12:15:26.470Z,186.40
2022-12-24T12:18:09.393Z,194.20
2022-12-24T12:20:43.544Z,180.80
2022-12-24T12:23:13.426Z,167.90
2022-12-24T12:25:57.906Z,160.10
2022-12-24T12:28:41.331Z,178.90
2022-12-24T12:31:45.036Z,155.00
2022-12-24T12:34:23.546Z,126.30
2022-12-24T12:36:56.846Z,128.60
2022-12-24T12:39:23.926Z,129.80
2022-12-24T12:42:09.186Z,120.50
2022-12-24T12:45:03.157Z,100.40
2022-12-24T12:48:09.230Z,96.80
2022-12-24T12:50:49.482Z,103.70
2022-12-24T12:53:27.908Z,101.00
2022-12-24T12:56:26.812Z,73.10
2022-12-24T12:59:04.407Z,96.80
2022-12-24T13:01:33.603Z,61.20
2022-12-24T13:04:09.349Z,49.00
2022-12-24T13:06:48.274Z,50.70
2022-12-24T13:09:14.741Z,41.60
2022-12-24T13:11:50.196Z,41.90
2022-12-24T13:14:28.648Z,34.20
2022-12-24T13:17:13.807Z,31.30
2022-12-24T13:20:02.274Z,31.50
2022-12-24T13:22:28.747Z,39.30
2022-12-24T13:24:56.840Z,27.10
2022-12-24T13:27:29.788Z,33.90
2022-12-24T13:30:02.343Z,26.80
2022-12-24T13:32:52.246Z,24.60
2022-12-24T13:35:18.704Z,24.20
2022-12-24T13:37:46.103Z,24.90
2022-12-24T13:40:12.521Z,24.70
2022-12-24T13:43:06.939Z,77.80
2022-12-24T13:45:33.431Z,79.00
2022-12-24T13:48:05.977Z,47.80
2022-12-24T13:50:38.665Z,29.70
2022-12-24T13:53:18.898Z,21.30
2022-12-24T13:55:57.345Z,19.60
2022-12-24T13:58:25.729Z,15.40
2022-12-24T14:00:57.001Z,19.20
2022-12-24T14:06:07.625Z,30.20
2022-12-24T14:08:41.698Z,27.00
2022-12-24T14:11:18.753Z,47.80
2022-12-24T14:13:45.204Z,40.00
2022-12-24T14:16:41.510Z,27.20
2022-12-24T14:19:21.491Z,23.30
2022-12-24T14:22:14.458Z,25.90
2022-12-24T14:24:44.220Z,16.60
2022-12-24T14:27:10.559Z,19.80
2022-12-24T14:30:16.176Z,18.40
2022-12-24T14:32:42.576Z,17.40
2022-12-24T14:35:11.796Z,22.40
2022-12-24T14:37:40.150Z,46.20
2022-12-24T14:40:08.737Z,14.60
2022-12-24T14:42:49.686Z,15.90
2022-12-24T14:45:38.128Z,14.70
2022-12-24T14:48:26.440Z,11.20
2022-12-24T14:51:11.234Z,12.40
2022-12-24T14:53:59.436Z,7.70
2022-12-24T14:56:26.012Z,8.40
2022-12-24T14:58:52.410Z,9.10
2022-12-24T15:01:25.729Z,11.30
2022-12-24T15:04:03.898Z,11.30
2022-12-24T15:06:34.926Z,11.20
2022-12-24T15:09:01.658Z,9.80
2022-12-24T15:11:28.630Z,9.40
2022-12-24T15:14:00.227Z,12.10
2022-12-24T15:16:35.475Z,11.60
2022-12-24T15:19:05.891Z,10.90
2022-12-24T15:21:39.936Z,10.30
2022-12-24T15:24:23.400Z,10.50
2022-12-24T15:26:49.932Z,11.20
2022-12-24T15:29:28.405Z,9.70
2022-12-24T15:32:02.670Z,11.50
2022-12-24T15:34:36.378Z,11.00
2022-12-24T15:37:23.732Z,9.80
2022-12-24T15:39:55.775Z,10.70
2022-12-24T15:42:23.966Z,10.20
2022-12-24T15:45:19.192Z,10.30
2022-12-24T15:48:18.575Z,10.60
2022-12-24T15:50:48.438Z,11.70
2022-12-24T15:53:22.053Z,12.10
2022-12-24T15:56:03.811Z,12.90
2022-12-24T15:58:34.227Z,12.20
2022-12-24T16:01:14.514Z,11.10
2022-12-24T16:03:55.741Z,11.60
2022-12-24T16:06:22.725Z,10.50
2022-12-24T16:08:49.749Z,11.10
2022-12-24T16:11:25.270Z,10.00
2022-12-24T16:13:54.459Z,11.20
2022-12-24T16:16:30.444Z,10.40
2022-12-24T16:19:01.324Z,11.00
2022-12-24T16:21:30.467Z,10.00
2022-12-24T16:24:03.237Z,7.70
2022-12-24T16:26:29.753Z,8.50
2022-12-24T16:28:56.500Z,8.80
2022-12-24T16:31:36.288Z,9.90
2022-12-24T16:34:04.777Z,11.70
2022-12-24T16:36:32.726Z,11.10
2022-12-24T16:38:59.770Z,9.70
2022-12-24T16:41:26.230Z,20.80
2022-12-24T16:43:52.648Z,12.70
2022-12-24T16:46:19.485Z,10.90
2022-12-24T16:48:48.517Z,12.50
2022-12-24T16:51:15.220Z,19.30
2022-12-24T16:53:41.772Z,20.30
2022-12-24T16:56:08.515Z,16.20
2022-12-24T16:58:35.094Z,13.50
2022-12-24T17:01:07.637Z,15.90
2022-12-24T17:03:35.652Z,16.10
2022-12-24T17:06:05.535Z,15.30
2022-12-24T17:08:32.221Z,22.00
2022-12-24T17:10:58.739Z,21.60
2022-12-24T17:13:25.254Z,16.80
2022-12-24T17:15:51.915Z,18.30
2022-12-24T17:18:18.430Z,18.40
2022-12-24T17:20:44.966Z,16.10
2022-12-24T17:23:11.532Z,15.60
2022-12-24T17:25:37.991Z,15.50
2022-12-24T17:28:04.797Z,14.30
2022-12-24T17:30:31.226Z,13.00
2022-12-24T17:32:57.720Z,12.40
2022-12-24T17:35:24.137Z,10.60
2022-12-24T17:37:50.574Z,9.10
2022-12-24T17:40:17.683Z,10.70
2022-12-24T17:42:44.178Z,10.40
2022-12-24T17:45:10.884Z,10.70
2022-12-24T17:47:37.414Z,13.90
2022-12-24T17:50:04.687Z,10.20
2022-12-24T17:52:31.122Z,9.10
2022-12-24T17:54:57.543Z,8.80
2022-12-24T17:57:23.988Z,7.00
2022-12-24T17:59:50.373Z,6.60
2022-12-24T18:02:17.054Z,7.80
2022-12-24T18:04:43.626Z,7.70
2022-12-24T18:07:10.248Z,7.60
2022-12-24T18:09:36.792Z,8.60
2022-12-24T18:12:04.362Z,8.50
2022-12-24T18:14:31.105Z,10.20
2022-12-24T18:16:57.636Z,9.00
2022-12-24T18:19:24.108Z,8.30
2022-12-24T18:21:50.559Z,9.30
2022-12-24T18:24:17.294Z,10.50
2022-12-24T18:26:44.747Z,7.60
2022-12-24T18:29:11.688Z,7.00
2022-12-24T18:31:38.907Z,8.20
2022-12-24T18:34:07.724Z,6.50
2022-12-24T18:36:34.727Z,6.40
2022-12-24T18:39:01.769Z,7.10
2022-12-24T18:41:30.323Z,7.90
2022-12-24T18:43:58.479Z,9.20
2022-12-24T18:46:34.203Z,8.60
2022-12-24T18:49:01.926Z,8.30
2022-12-24T18:51:31.994Z,8.80
2022-12-24T18:53:58.684Z,9.20
2022-12-24T18:56:26.243Z,9.50
2022-12-24T18:58:54.955Z,9.50
2022-12-24T19:01:27.570Z,10.90
2022-12-24T19:03:54.387Z,9.70
2022-12-24T19:06:22.028Z,9.60
2022-12-24T19:08:58.204Z,11.10
2022-12-24T19:11:27.678Z,13.00
2022-12-24T19:13:54.323Z,26.30
2022-12-24T19:16:22.014Z,33.30
2022-12-24T19:18:49.250Z,39.40
2022-12-24T19:21:17.790Z,56.80
2022-12-24T19:23:45.828Z,64.30
2022-12-24T19:26:14.406Z,51.50
2022-12-24T19:28:41.450Z,35.50
2022-12-24T19:31:11.040Z,36.10
2022-12-24T19:33:42.502Z,48.50
2022-12-24T19:36:13.207Z,41.40
2022-12-24T19:38:40.342Z,51.80
2022-12-24T19:41:12.202Z,45.60
2022-12-24T19:43:43.722Z,41.70
2022-12-24T19:46:13.698Z,59.20
2022-12-24T19:48:41.731Z,64.90
2022-12-24T19:51:10.704Z,58.00
2022-12-24T19:53:38.175Z,66.30
2022-12-24T19:56:05.457Z,54.60
2022-12-24T19:58:32.103Z,59.90
2022-12-24T20:01:15.171Z,75.00
2022-12-24T20:03:43.700Z,97.70
2022-12-24T20:06:11.263Z,80.70
2022-12-24T20:08:38.531Z,91.50
2022-12-24T20:11:07.395Z,79.30
2022-12-24T20:13:35.265Z,79.80
2022-12-24T20:16:29.626Z,84.00
2022-12-24T20:19:03.052Z,74.70
2022-12-24T20:21:31.528Z,114.50
2022-12-24T20:23:58.688Z,94.50
2022-12-24T20:26:28.449Z,89.90
2022-12-24T20:28:55.313Z,87.90
2022-12-24T20:31:25.771Z,105.80
2022-12-24T20:33:52.593Z,63.60
2022-12-24T20:36:21.770Z,85.30
2022-12-24T20:38:48.847Z,80.90
2022-12-24T20:41:17.897Z,80.60
2022-12-24T20:43:48.395Z,76.80
2022-12-24T20:46:16.827Z,79.90
2022-12-24T20:48:44.075Z,71.70
2022-12-24T20:51:20.987Z,126.80
2022-12-24T20:53:51.058Z,108.20
2022-12-24T20:56:18.454Z,134.80
2022-12-24T20:58:46.117Z,108.50
2022-12-24T21:01:18.422Z,99.40
2022-12-24T21:03:45.544Z,121.40
2022-12-24T21:06:12.706Z,115.30
2022-12-24T21:08:39.355Z,97.40
2022-12-24T21:11:05.887Z,89.00
2022-12-24T21:13:32.410Z,85.30
2022-12-24T21:15:58.964Z,96.90
2022-12-24T21:18:25.378Z,100.40
2022-12-24T21:20:51.809Z,104.80
2022-12-24T21:23:19.883Z,82.90
2022-12-24T21:25:57.572Z,78.70
2022-12-24T21:28:24.030Z,70.00
2022-12-24T21:30:50.503Z,60.50
2022-12-24T21:33:16.984Z,56.60
2022-12-24T21:35:43.553Z,65.30
2022-12-24T21:38:10.175Z,64.10
2022-12-24T21:40:36.598Z,73.10
2022-12-24T21:43:04.252Z,73.40
2022-12-24T21:45:30.840Z,95.60
2022-12-24T21:47:57.390Z,75.10
2022-12-24T21:50:26.832Z,68.60
2022-12-24T21:52:59.172Z,54.10
2022-12-24T21:55:25.610Z,58.00
2022-12-24T21:57:52.059Z,66.10
2022-12-24T22:00:21.286Z,56.00
2022-12-24T22:02:49.353Z,44.30
2022-12-24T22:05:16.456Z,52.20
2022-12-24T22:07:42.858Z,57.80
2022-12-24T22:10:12.054Z,54.40
2022-12-24T22:12:38.470Z,50.00
2022-12-24T22:15:06.690Z,39.10
2022-12-24T22:17:33.268Z,36.30
2022-12-24T22:19:59.806Z,35.00
2022-12-24T22:22:26.476Z,33.90
2022-12-24T22:24:52.927Z,34.30
2022-12-24T22:27:19.729Z,31.50
2022-12-24T22:29:46.482Z,34.60
2022-12-24T22:32:13.116Z,37.10
2022-12-24T22:34:39.523Z,37.10
2022-12-24T22:37:06.031Z,111.50
2022-12-24T22:39:32.617Z,56.20
2022-12-24T22:41:59.051Z,43.10
2022-12-24T22:44:25.605Z,45.60
2022-12-24T22:46:52.267Z,54.40
2022-12-24T22:49:18.686Z,50.80
2022-12-24T22:51:45.236Z,48.40
2022-12-24T22:54:11.869Z,41.00
2022-12-24T22:56:41.335Z,33.30
2022-12-24T22:59:12.380Z,41.80
2022-12-24T23:01:41.689Z,46.60
2022-12-24T23:04:09.535Z,44.10
2022-12-24T23:06:36.551Z,53.30
2022-12-24T23:09:06.104Z,64.70
2022-12-24T23:11:32.933Z,70.70
2022-12-24T23:13:59.424Z,64.30
2022-12-24T23:16:27.319Z,96.40
2022-12-24T23:18:54.561Z,75.00
2022-12-24T23:21:21.111Z,72.30
2022-12-24T23:23:47.655Z,72.50
2022-12-24T23:26:16.875Z,80.00
2022-12-24T23:28:44.145Z,78.30
2022-12-24T23:31:12.109Z,100.00
2022-12-24T23:33:39.109Z,68.00
2022-12-24T23:36:06.547Z,62.00
2022-12-24T23:38:33.243Z,59.70
2022-12-24T23:41:01.838Z,51.40
2022-12-24T23:43:29.053Z,38.10
2022-12-24T23:45:56.090Z,38.00
2022-12-24T23:48:24.567Z,35.20
2022-12-24T23:50:51.539Z,33.10
2022-12-24T23:53:19.510Z,40.30
2022-12-24T23:55:46.596Z,39.70
2022-12-24T23:58:15.379Z,40.40
